createdAt,value
2022-12-15T00:01:12.115Z,7.93
2022-12-15T00:03:58.727Z,8.07
2022-12-15T00:06:45.412Z,8.10
2022-12-15T00:09:31.923Z,8.20
2022-12-15T00:12:18.811Z,9.43
2022-12-15T00:15:05.683Z,8.23
2022-12-15T00:17:53.544Z,9.98
2022-12-15T00:20:40.386Z,9.10
2022-12-15T00:23:27.967Z,9.00
2022-12-15T00:26:15.109Z,8.77
2022-12-15T00:29:02.007Z,8.80
2022-12-15T00:31:48.665Z,9.30
2022-12-15T00:34:36.943Z,8.82
2022-12-15T00:37:23.742Z,8.90
2022-12-15T00:39:59.417Z,8.82
2022-12-15T00:42:28.907Z,8.45
2022-12-15T00:44:58.928Z,9.20
2022-12-15T00:47:27.059Z,8.05
2022-12-15T00:50:15.299Z,8.68
2022-12-15T00:53:02.184Z,8.90
2022-12-15T00:55:48.911Z,8.15
2022-12-15T00:58:35.661Z,8.45
2022-12-15T01:01:25.690Z,8.38
2022-12-15T01:04:12.971Z,9.07
2022-12-15T01:07:01.078Z,9.13
2022-12-15T01:09:47.912Z,8.52
2022-12-15T01:12:34.614Z,8.80
2022-12-15T01:15:21.414Z,8.57
2022-12-15T01:18:08.133Z,8.65
2022-12-15T01:20:37.531Z,8.32
2022-12-15T01:23:08.096Z,8.27
2022-12-15T01:25:40.478Z,8.57
2022-12-15T01:28:09.778Z,8.70
2022-12-15T01:30:38.999Z,8.50
2022-12-15T01:33:08.178Z,8.55
2022-12-15T01:35:37.433Z,8.30
2022-12-15T01:38:08.596Z,9.05
2022-12-15T01:40:46.999Z,8.05
2022-12-15T01:43:18.691Z,8.75
2022-12-15T01:45:54.735Z,8.50
2022-12-15T01:48:41.686Z,8.48
2022-12-15T01:51:26.615Z,8.70
2022-12-15T01:54:01.529Z,8.73
2022-12-15T01:56:37.415Z,8.23
2022-12-15T01:59:10.621Z,8.68
2022-12-15T02:01:40.546Z,8.70
2022-12-15T02:04:13.220Z,8.07
2022-12-15T02:06:42.566Z,8.27
2022-12-15T02:09:13.363Z,8.27
2022-12-15T02:11:57.081Z,8.32
2022-12-15T02:14:44.919Z,8.10
2022-12-15T02:17:24.953Z,8.77
2022-12-15T02:20:27.643Z,8.68
2022-12-15T02:23:28.633Z,9.05
2022-12-15T02:26:32.731Z,8.27
2022-12-15T02:29:19.342Z,8.65
2022-12-15T02:31:54.144Z,8.60
2022-12-15T02:34:30.163Z,7.75
2022-12-15T02:37:03.175Z,8.15
2022-12-15T02:39:32.829Z,7.80
2022-12-15T02:42:02.067Z,8.13
2022-12-15T02:44:36.887Z,7.95
2022-12-15T02:47:24.991Z,7.55
2022-12-15T02:52:55.369Z,8.15
2022-12-15T02:55:31.872Z,7.72
2022-12-15T02:58:06.141Z,8.20
2022-12-15T03:00:39.774Z,7.60
2022-12-15T03:03:10.893Z,7.93
2022-12-15T03:05:41.106Z,8.07
2022-12-15T03:08:10.743Z,8.02
2022-12-15T03:10:40.068Z,7.38
2022-12-15T03:13:09.294Z,8.13
2022-12-15T03:15:38.557Z,7.63
2022-12-15T03:18:09.336Z,7.18
2022-12-15T03:20:38.560Z,8.13
2022-12-15T03:23:07.695Z,7.55
2022-12-15T03:25:36.890Z,7.45
2022-12-15T03:28:06.287Z,7.35
2022-12-15T03:30:35.657Z,7.78
2022-12-15T03:33:04.893Z,7.55
2022-12-15T03:35:35.783Z,7.22
2022-12-15T03:38:05.038Z,7.05
2022-12-15T03:40:34.366Z,7.32
2022-12-15T03:43:03.658Z,7.50
2022-12-15T03:45:32.926Z,6.75
2022-12-15T03:48:02.259Z,6.88
2022-12-15T03:50:31.789Z,6.75
2022-12-15T03:53:04.834Z,6.35
2022-12-15T03:55:35.289Z,6.68
2022-12-15T03:58:04.568Z,6.70
2022-12-15T04:00:34.072Z,7.22
2022-12-15T04:03:03.381Z,6.90
2022-12-15T04:05:34.561Z,6.70
2022-12-15T04:08:06.166Z,6.90
2022-12-15T04:10:36.633Z,7.15
2022-12-15T04:13:09.224Z,6.65
2022-12-15T04:15:40.696Z,6.85
2022-12-15T04:18:11.970Z,6.82
2022-12-15T04:20:41.901Z,5.80
2022-12-15T04:23:12.463Z,6.30
2022-12-15T04:25:59.137Z,6.13
2022-12-15T04:28:45.931Z,6.85
2022-12-15T04:31:36.844Z,6.05
2022-12-15T04:34:25.249Z,6.05
2022-12-15T04:37:12.952Z,5.97
2022-12-15T04:40:04.168Z,6.55
2022-12-15T04:42:52.440Z,5.95
2022-12-15T04:45:41.917Z,6.35
2022-12-15T04:48:29.017Z,5.82
2022-12-15T04:51:15.839Z,6.13
2022-12-15T04:54:03.483Z,6.07
2022-12-15T04:56:52.214Z,6.22
2022-12-15T04:59:39.121Z,5.80
2022-12-15T05:02:25.797Z,6.07
2022-12-15T05:05:12.580Z,5.95
2022-12-15T05:07:59.305Z,5.70
2022-12-15T05:10:46.285Z,5.90
2022-12-15T05:13:34.428Z,5.97
2022-12-15T05:16:24.497Z,5.57
2022-12-15T05:19:11.107Z,5.63
2022-12-15T05:21:58.050Z,5.90
2022-12-15T05:24:44.908Z,5.75
2022-12-15T05:27:31.842Z,5.88
2022-12-15T05:30:19.755Z,5.38
2022-12-15T05:32:49.891Z,5.53
2022-12-15T05:35:19.379Z,4.97
2022-12-15T05:37:48.695Z,5.07
2022-12-15T05:40:18.053Z,5.55
2022-12-15T05:42:50.260Z,5.57
2022-12-15T05:45:21.168Z,5.65
2022-12-15T05:47:52.811Z,5.05
2022-12-15T05:50:23.576Z,5.10
2022-12-15T05:52:52.819Z,5.13
2022-12-15T05:55:22.488Z,4.95
2022-12-15T05:57:54.163Z,5.32
2022-12-15T06:00:25.337Z,5.07
2022-12-15T06:02:55.174Z,5.53
2022-12-15T06:05:24.810Z,5.38
2022-12-15T06:07:54.891Z,4.65
2022-12-15T06:10:24.582Z,5.07
2022-12-15T06:12:54.476Z,5.15
2022-12-15T06:15:25.820Z,5.18
2022-12-15T06:17:56.123Z,4.53
2022-12-15T06:20:25.632Z,5.10
2022-12-15T06:22:54.900Z,4.75
2022-12-15T06:25:24.206Z,4.90
2022-12-15T06:27:58.342Z,4.70
2022-12-15T06:30:32.358Z,4.93
2022-12-15T06:33:01.699Z,4.95
2022-12-15T06:35:31.212Z,4.55
2022-12-15T06:38:00.888Z,4.63
2022-12-15T06:40:34.776Z,4.90
2022-12-15T06:43:07.843Z,4.10
2022-12-15T06:45:38.638Z,4.85
2022-12-15T06:48:10.114Z,4.15
2022-12-15T06:50:41.177Z,4.63
2022-12-15T06:53:10.656Z,4.07
2022-12-15T06:55:39.990Z,4.43
2022-12-15T06:58:09.509Z,4.50
2022-12-15T07:00:41.324Z,4.80
2022-12-15T07:03:15.573Z,4.22
2022-12-15T07:05:45.684Z,4.65
2022-12-15T07:08:16.160Z,4.35
2022-12-15T07:10:46.083Z,4.43
2022-12-15T07:13:15.882Z,4.20
2022-12-15T07:15:47.375Z,5.10
2022-12-15T07:18:17.459Z,4.88
2022-12-15T07:20:46.699Z,4.60
2022-12-15T07:23:29.694Z,4.38
2022-12-15T07:26:12.020Z,4.03
2022-12-15T07:28:42.585Z,4.28
2022-12-15T07:31:14.198Z,4.40
2022-12-15T07:33:43.712Z,6.40
2022-12-15T07:36:13.346Z,4.90
2022-12-15T07:38:42.855Z,4.60
2022-12-15T07:41:12.155Z,5.45
2022-12-15T07:43:41.530Z,5.88
2022-12-15T07:46:11.061Z,5.63
2022-12-15T07:48:41.760Z,5.18
2022-12-15T07:51:19.052Z,5.60
2022-12-15T07:53:49.609Z,5.22
2022-12-15T07:56:19.459Z,4.45
2022-12-15T07:58:49.000Z,4.82
2022-12-15T08:01:19.989Z,5.68
2022-12-15T08:03:51.842Z,4.53
2022-12-15T08:06:21.749Z,4.63
2022-12-15T08:08:51.521Z,4.65
2022-12-15T08:11:23.326Z,5.13
2022-12-15T08:14:02.441Z,4.20
2022-12-15T08:16:34.804Z,4.45
2022-12-15T08:19:06.646Z,4.65
2022-12-15T08:21:36.138Z,4.50
2022-12-15T08:24:05.932Z,4.22
2022-12-15T08:26:35.618Z,4.47
2022-12-15T08:31:55.381Z,4.00
2022-12-15T08:34:26.262Z,4.18
2022-12-15T08:36:56.903Z,4.00
2022-12-15T08:39:26.305Z,4.03
2022-12-15T08:41:55.771Z,3.85
2022-12-15T08:44:25.034Z,3.30
2022-12-15T08:46:54.285Z,3.50
2022-12-15T08:49:23.633Z,3.53
2022-12-15T08:51:54.487Z,3.70
2022-12-15T08:54:23.928Z,3.28
2022-12-15T08:56:53.293Z,3.20
2022-12-15T08:59:23.052Z,3.40
2022-12-15T09:01:52.442Z,3.42
2022-12-15T09:04:22.018Z,3.10
2022-12-15T09:06:51.538Z,3.17
2022-12-15T09:09:22.407Z,3.10
2022-12-15T09:11:52.045Z,3.00
2022-12-15T09:14:28.925Z,2.65
2022-12-15T09:16:59.223Z,2.50
2022-12-15T09:19:29.199Z,2.90
2022-12-15T09:21:58.479Z,2.75
2022-12-15T09:24:35.092Z,2.88
2022-12-15T09:27:05.457Z,2.78
2022-12-15T09:29:35.412Z,2.53
2022-12-15T09:32:10.542Z,2.67
2022-12-15T09:34:43.548Z,2.78
2022-12-15T09:37:13.513Z,2.95
2022-12-15T09:39:44.369Z,2.63
2022-12-15T09:42:25.062Z,4.15
2022-12-15T09:45:02.473Z,3.33
2022-12-15T09:47:41.095Z,3.67
2022-12-15T09:50:13.835Z,3.60
2022-12-15T09:52:49.221Z,3.75
2022-12-15T09:55:23.464Z,4.38
2022-12-15T09:57:55.516Z,3.90
2022-12-15T10:00:26.315Z,3.80
2022-12-15T10:03:34.513Z,3.40
2022-12-15T10:06:21.584Z,3.58
2022-12-15T10:08:56.059Z,3.72
2022-12-15T10:11:41.970Z,3.10
2022-12-15T10:14:20.553Z,2.85
2022-12-15T10:17:00.167Z,2.80
2022-12-15T10:19:38.526Z,2.72
2022-12-15T10:22:12.023Z,3.03
2022-12-15T10:27:54.993Z,2.75
2022-12-15T10:30:25.187Z,3.30
2022-12-15T10:33:02.669Z,2.60
2022-12-15T10:35:34.510Z,2.55
2022-12-15T10:38:06.603Z,2.50
2022-12-15T10:40:50.516Z,2.47
2022-12-15T10:43:31.094Z,2.40
2022-12-15T10:46:15.073Z,2.70
2022-12-15T10:51:38.680Z,2.35
2022-12-15T10:54:14.863Z,2.40
2022-12-15T10:56:51.876Z,2.45
2022-12-15T10:59:27.868Z,1.75
2022-12-15T11:01:57.342Z,2.20
2022-12-15T11:04:28.809Z,2.03
2022-12-15T11:06:59.847Z,2.42
2022-12-15T11:09:35.570Z,2.20
2022-12-15T11:12:36.258Z,2.20
2022-12-15T11:15:47.160Z,2.08
2022-12-15T11:18:33.869Z,2.28
2022-12-15T11:21:06.670Z,2.38
2022-12-15T11:23:50.423Z,2.88
2022-12-15T11:26:32.333Z,1.90
2022-12-15T11:29:08.320Z,2.20
2022-12-15T11:31:44.311Z,2.10
2022-12-15T11:34:16.015Z,1.88
2022-12-15T11:37:14.703Z,2.33
2022-12-15T11:39:59.107Z,2.08
2022-12-15T11:42:40.436Z,2.10
2022-12-15T11:45:19.904Z,1.90
2022-12-15T11:47:53.809Z,1.73
2022-12-15T11:50:31.858Z,1.85
2022-12-15T11:53:31.045Z,1.83
2022-12-15T11:56:13.078Z,1.90
2022-12-15T11:59:05.905Z,1.70
2022-12-15T12:02:03.580Z,2.00
2022-12-15T12:04:44.979Z,2.20
2022-12-15T12:07:26.143Z,2.15
2022-12-15T12:10:06.695Z,2.42
2022-12-15T12:12:45.298Z,2.47
2022-12-15T12:15:28.036Z,2.63
2022-12-15T12:18:03.365Z,2.53
2022-12-15T12:20:42.381Z,2.60
2022-12-15T12:23:18.750Z,2.28
2022-12-15T12:26:02.944Z,2.50
2022-12-15T12:28:43.930Z,2.30
2022-12-15T12:31:24.234Z,2.30
2022-12-15T12:34:00.231Z,2.63
2022-12-15T12:36:31.382Z,2.60
2022-12-15T12:39:01.141Z,2.47
2022-12-15T12:41:37.983Z,2.10
2022-12-15T12:44:15.721Z,2.45
2022-12-15T12:46:49.118Z,2.00
2022-12-15T12:49:27.213Z,2.10
2022-12-15T12:51:59.892Z,2.05
2022-12-15T12:55:00.373Z,1.85
2022-12-15T12:57:36.473Z,1.85
2022-12-15T13:00:25.062Z,1.83
2022-12-15T13:03:11.172Z,1.90
2022-12-15T13:05:41.485Z,1.63
2022-12-15T13:08:51.662Z,1.75
2022-12-15T13:11:58.113Z,1.75
2022-12-15T13:14:51.979Z,1.50
2022-12-15T13:17:30.662Z,2.17
2022-12-15T13:20:24.745Z,1.70
2022-12-15T13:22:55.439Z,1.50
2022-12-15T13:25:40.988Z,1.70
2022-12-15T13:28:44.075Z,1.40
2022-12-15T13:31:29.179Z,2.00
2022-12-15T13:34:19.749Z,1.85
2022-12-15T13:36:56.733Z,1.60
2022-12-15T13:39:59.471Z,1.60
2022-12-15T13:45:42.729Z,1.70
2022-12-15T13:48:31.899Z,1.90
2022-12-15T13:51:21.416Z,2.17
2022-12-15T13:53:56.687Z,3.70
2022-12-15T13:56:40.564Z,3.08
2022-12-15T13:59:20.237Z,5.43
2022-12-15T14:01:54.115Z,6.60
2022-12-15T14:04:24.897Z,8.65
2022-12-15T14:06:56.087Z,7.45
2022-12-15T14:09:31.566Z,7.47
2022-12-15T14:12:02.977Z,7.00
2022-12-15T14:14:36.356Z,7.18
2022-12-15T14:17:14.548Z,6.97
2022-12-15T14:19:46.826Z,10.57
2022-12-15T14:22:29.031Z,15.35
2022-12-15T14:25:05.237Z,14.75
2022-12-15T14:27:35.225Z,12.68
2022-12-15T14:30:20.821Z,11.27
2022-12-15T14:32:54.397Z,10.98
2022-12-15T14:35:31.408Z,11.00
2022-12-15T14:38:03.881Z,10.93
2022-12-15T14:40:35.919Z,9.90
2022-12-15T14:43:06.329Z,9.18
2022-12-15T14:45:35.825Z,8.48
2022-12-15T14:51:04.185Z,7.30
2022-12-15T14:53:37.593Z,7.90
2022-12-15T14:56:30.885Z,6.45
2022-12-15T14:59:04.090Z,6.70
2022-12-15T15:01:40.255Z,6.32
2022-12-15T15:03:05.640Z,1.42
2022-12-15T15:03:10.108Z,2.35
2022-12-15T15:04:26.335Z,5.82
2022-12-15T15:06:58.603Z,5.30
2022-12-15T15:09:29.097Z,5.57
2022-12-15T15:12:03.165Z,4.80
2022-12-15T15:14:38.873Z,4.47
2022-12-15T15:17:10.678Z,4.70
2022-12-15T15:19:47.719Z,4.60
2022-12-15T15:22:36.293Z,4.43
2022-12-15T15:25:26.740Z,4.38
2022-12-15T15:28:05.247Z,3.92
2022-12-15T15:30:44.111Z,3.67
2022-12-15T15:33:14.001Z,3.95
2022-12-15T15:35:44.600Z,3.40
2022-12-15T15:38:21.479Z,3.63
2022-12-15T15:40:52.673Z,3.80
2022-12-15T15:43:22.192Z,3.33
2022-12-15T15:45:55.228Z,3.00
2022-12-15T15:48:27.702Z,3.55
2022-12-15T15:50:57.237Z,3.25
2022-12-15T15:53:28.545Z,2.72
2022-12-15T15:55:57.926Z,3.10
2022-12-15T15:58:27.432Z,3.10
2022-12-15T16:00:56.810Z,2.75
2022-12-15T16:03:26.683Z,3.13
2022-12-15T16:05:56.279Z,2.83
2022-12-15T16:08:32.847Z,3.10
2022-12-15T16:11:03.147Z,2.72
2022-12-15T16:13:32.435Z,2.50
2022-12-15T16:16:02.393Z,2.72
2022-12-15T16:18:32.905Z,4.20
2022-12-15T16:21:02.581Z,7.57
2022-12-15T16:23:33.414Z,7.00
2022-12-15T16:26:03.042Z,6.55
2022-12-15T16:28:33.627Z,6.80
2022-12-15T16:31:03.391Z,9.43
2022-12-15T16:33:32.686Z,8.23
2022-12-15T16:36:02.338Z,8.23
2022-12-15T16:38:34.036Z,7.88
2022-12-15T16:41:08.461Z,6.80
2022-12-15T16:43:41.581Z,6.25
2022-12-15T16:46:15.996Z,6.45
2022-12-15T16:48:45.508Z,6.32
2022-12-15T16:51:28.163Z,6.80
2022-12-15T16:53:58.841Z,5.78
2022-12-15T16:56:28.093Z,5.60
2022-12-15T16:59:30.994Z,5.95
2022-12-15T17:01:46.932Z,5.30
2022-12-15T17:04:16.857Z,5.68
2022-12-15T17:06:46.357Z,5.40
2022-12-15T17:09:20.794Z,5.40
2022-12-15T17:11:50.344Z,4.38
2022-12-15T17:14:19.578Z,4.60
2022-12-15T17:16:48.976Z,4.20
2022-12-15T17:19:21.267Z,3.75
2022-12-15T17:21:54.078Z,4.43
2022-12-15T17:24:25.012Z,4.45
2022-12-15T17:26:54.474Z,3.95
2022-12-15T17:29:26.566Z,4.05
2022-12-15T17:31:55.895Z,3.70
2022-12-15T17:34:30.376Z,3.30
2022-12-15T17:37:01.641Z,3.45
2022-12-15T17:39:34.186Z,3.22
2022-12-15T17:42:03.575Z,3.70
2022-12-15T17:44:37.477Z,3.30
2022-12-15T17:47:09.625Z,3.10
2022-12-15T17:49:39.399Z,3.53
2022-12-15T17:52:18.270Z,3.53
2022-12-15T17:54:49.050Z,3.20
2022-12-15T17:57:18.609Z,2.85
2022-12-15T17:59:47.896Z,2.47
2022-12-15T18:02:17.536Z,2.42
2022-12-15T18:04:47.244Z,2.78
2022-12-15T18:07:19.596Z,2.70
2022-12-15T18:09:51.662Z,2.47
2022-12-15T18:12:23.898Z,2.50
2022-12-15T18:14:54.348Z,2.75
2022-12-15T18:17:24.279Z,2.35
2022-12-15T18:19:54.062Z,2.30
2022-12-15T18:22:25.398Z,2.50
2022-12-15T18:24:56.113Z,2.35
2022-12-15T18:27:27.458Z,2.10
2022-12-15T18:29:57.559Z,2.60
2022-12-15T18:32:30.042Z,1.90
2022-12-15T18:34:59.424Z,2.15
2022-12-15T18:37:28.674Z,2.42
2022-12-15T18:40:04.676Z,2.70
2022-12-15T18:42:34.925Z,2.78
2022-12-15T18:45:06.215Z,3.17
2022-12-15T18:47:35.568Z,3.30
2022-12-15T18:50:05.164Z,4.40
2022-12-15T18:52:34.984Z,4.95
2022-12-15T18:55:08.398Z,5.72
2022-12-15T18:57:37.972Z,6.80
2022-12-15T19:00:19.479Z,6.05
2022-12-15T19:02:49.900Z,6.60
2022-12-15T19:05:32.777Z,6.85
2022-12-15T19:08:05.406Z,5.82
2022-12-15T19:10:36.758Z,5.72
2022-12-15T19:13:07.520Z,5.38
2022-12-15T19:15:36.992Z,4.68
2022-12-15T19:21:10.123Z,4.22
2022-12-15T19:23:39.465Z,3.33
2022-12-15T19:26:13.396Z,3.60
2022-12-15T19:28:42.873Z,2.70
2022-12-15T19:31:12.589Z,2.58
2022-12-15T19:33:42.131Z,3.25
2022-12-15T19:36:16.630Z,3.45
2022-12-15T19:38:46.848Z,3.60
2022-12-15T19:41:18.771Z,3.58
2022-12-15T19:43:48.322Z,4.07
2022-12-15T19:46:22.114Z,3.83
2022-12-15T19:48:51.441Z,3.70
2022-12-15T19:51:23.363Z,3.10
2022-12-15T19:53:52.694Z,3.03
2022-12-15T19:56:24.976Z,2.58
2022-12-15T19:58:54.521Z,2.38
2022-12-15T20:01:23.957Z,2.80
2022-12-15T20:03:54.353Z,2.60
2022-12-15T20:06:26.484Z,2.20
2022-12-15T20:08:57.159Z,2.13
2022-12-15T20:11:29.862Z,2.15
2022-12-15T20:13:59.209Z,2.05
2022-12-15T20:16:28.701Z,2.08
2022-12-15T20:18:58.069Z,2.53
2022-12-15T20:21:33.833Z,2.13
2022-12-15T20:24:08.142Z,1.70
2022-12-15T20:26:40.059Z,2.50
2022-12-15T20:29:20.007Z,2.17
2022-12-15T20:31:49.648Z,2.10
2022-12-15T20:34:27.917Z,1.98
2022-12-15T20:36:58.924Z,1.60
2022-12-15T20:39:30.895Z,1.83
2022-12-15T20:42:02.107Z,1.70
2022-12-15T20:44:31.462Z,2.20
2022-12-15T20:47:03.992Z,2.08
2022-12-15T20:49:33.336Z,2.65
2022-12-15T20:52:03.872Z,2.35
2022-12-15T20:54:33.400Z,2.38
2022-12-15T20:57:04.476Z,2.20
2022-12-15T20:59:33.953Z,1.90
2022-12-15T21:02:06.708Z,1.73
2022-12-15T21:04:36.521Z,1.58
2022-12-15T21:07:10.519Z,1.85
2022-12-15T21:09:40.224Z,1.35
2022-12-15T21:12:21.397Z,1.50
2022-12-15T21:14:51.100Z,1.52
2022-12-15T21:17:23.279Z,1.27
2022-12-15T21:19:53.193Z,1.30
2022-12-15T21:22:27.214Z,1.63
2022-12-15T21:24:58.763Z,1.67
2022-12-15T21:27:29.683Z,1.02
2022-12-15T21:29:58.970Z,1.20
2022-12-15T21:32:28.289Z,1.00
2022-12-15T21:34:57.674Z,1.00
2022-12-15T21:37:31.024Z,1.40
2022-12-15T21:40:00.849Z,1.05
2022-12-15T21:42:39.612Z,1.30
2022-12-15T21:45:16.043Z,1.30
2022-12-15T21:48:02.970Z,1.20
2022-12-15T21:50:32.313Z,1.20
2022-12-15T21:53:02.544Z,1.17
2022-12-15T21:55:32.304Z,1.17
2022-12-15T21:58:03.458Z,0.93
2022-12-15T22:00:32.792Z,1.20
2022-12-15T22:03:02.190Z,0.93
2022-12-15T22:05:31.584Z,1.30
2022-12-15T22:08:11.899Z,1.13
2022-12-15T22:10:41.272Z,1.20
2022-12-15T22:13:17.665Z,1.02
2022-12-15T22:15:47.267Z,0.90
2022-12-15T22:18:22.172Z,0.90
2022-12-15T22:20:52.598Z,0.95
2022-12-15T22:23:22.183Z,0.70
2022-12-15T22:25:55.505Z,0.80
2022-12-15T22:28:27.742Z,0.70
2022-12-15T22:30:58.451Z,1.10
2022-12-15T22:33:29.490Z,0.82
2022-12-15T22:35:58.816Z,0.90
2022-12-15T22:38:27.976Z,0.88
2022-12-15T22:40:59.980Z,0.90
2022-12-15T22:43:35.645Z,0.70
2022-12-15T22:46:06.489Z,0.90
2022-12-15T22:48:37.530Z,0.70
2022-12-15T22:51:08.035Z,0.60
2022-12-15T22:53:37.426Z,0.70
2022-12-15T22:56:14.917Z,0.70
2022-12-15T22:58:48.692Z,0.65
2022-12-15T23:01:18.077Z,0.98
2022-12-15T23:03:47.588Z,0.60
2022-12-15T23:06:16.776Z,0.68
2022-12-15T23:08:45.945Z,0.55
2022-12-15T23:11:32.796Z,0.52
2022-12-15T23:14:03.560Z,0.68
2022-12-15T23:16:32.006Z,0.60
2022-12-15T23:19:01.921Z,0.50
2022-12-15T23:21:31.194Z,0.70
2022-12-15T23:24:00.396Z,0.70
2022-12-15T23:26:29.643Z,0.60
2022-12-15T23:28:58.831Z,0.60
2022-12-15T23:31:29.605Z,0.60
2022-12-15T23:33:59.127Z,0.70
2022-12-15T23:36:29.045Z,0.63
2022-12-15T23:38:59.460Z,0.65
2022-12-15T23:41:29.496Z,0.60
2022-12-15T23:43:58.749Z,0.50
2022-12-15T23:46:29.501Z,0.70
2022-12-15T23:49:00.121Z,0.70
2022-12-15T23:51:29.414Z,0.70
2022-12-15T23:53:58.592Z,0.50
2022-12-15T23:56:27.837Z,0.60
2022-12-15T23:58:58.951Z,0.60
